Terminal Aerodrome Forecast
Issued by NWS

Home | Current Version | Previous Version | Text Only | Print | Product List | Glossary On
Versions: 1 2 3 4 5 6 7 8 9 10 11 12 13 14 15 16
000
FTUS41 KBGM 231744
TAFITH
TAF
KITH 231744Z 2318/2418 21010G18KT P6SM SCT025
      TEMPO 2318/2322 BKN025
     FM232200 VRB03KT P6SM SCT025 BKN035
     FM240300 VRB03KT P6SM OVC025
     FM240600 VRB03KT P6SM OVC015
      TEMPO 2409/2412 3SM -SHRA BR OVC008
     FM241500 19010KT P6SM BKN040=

USA.gov is the U.S. government's official web portal to all federal, state and local government web resources and services.